sensor_id;sensor_type;location;lat;lon;timestamp;P1;durP1;ratioP1;P2;durP2;ratioP2
9789;SDS011;4934;50.852;8.098;2022-12-18T00:01:47;18.83;;;6.30;;
9789;SDS011;4934;50.852;8.098;2022-12-18T00:04:19;14.03;;;5.43;;
9789;SDS011;4934;50.852;8.098;2022-12-18T00:06:47;16.37;;;6.00;;
9789;SDS011;4934;50.852;8.098;2022-12-18T00:09:14;27.73;;;7.10;;
9789;SDS011;4934;50.852;8.098;2022-12-18T00:11:40;21.37;;;6.87;;
9789;SDS011;4934;50.852;8.098;2022-12-18T00:14:06;23.50;;;6.43;;
9789;SDS011;4934;50.852;8.098;2022-12-18T00:16:32;21.50;;;6.87;;
9789;SDS011;4934;50.852;8.098;2022-12-18T00:19:00;28.20;;;7.65;;
9789;SDS011;4934;50.852;8.098;2022-12-18T00:21:26;17.87;;;6.70;;
9789;SDS011;4934;50.852;8.098;2022-12-18T00:23:54;35.42;;;14.00;;
9789;SDS011;4934;50.852;8.098;2022-12-18T00:26:21;47.60;;;16.17;;
9789;SDS011;4934;50.852;8.098;2022-12-18T00:28:52;21.07;;;8.33;;
9789;SDS011;4934;50.852;8.098;2022-12-18T00:31:22;20.47;;;6.63;;
9789;SDS011;4934;50.852;8.098;2022-12-18T00:33:49;20.87;;;6.93;;
9789;SDS011;4934;50.852;8.098;2022-12-18T00:36:16;21.20;;;7.70;;
9789;SDS011;4934;50.852;8.098;2022-12-18T00:38:48;20.27;;;6.80;;
9789;SDS011;4934;50.852;8.098;2022-12-18T00:41:14;23.65;;;7.68;;
9789;SDS011;4934;50.852;8.098;2022-12-18T00:44:01;14.10;;;5.07;;
9789;SDS011;4934;50.852;8.098;2022-12-18T00:46:28;21.90;;;7.70;;
9789;SDS011;4934;50.852;8.098;2022-12-18T00:48:54;17.70;;;7.13;;
9789;SDS011;4934;50.852;8.098;2022-12-18T00:51:20;19.63;;;7.10;;
9789;SDS011;4934;50.852;8.098;2022-12-18T00:53:45;23.30;;;7.60;;
9789;SDS011;4934;50.852;8.098;2022-12-18T00:56:11;18.07;;;7.30;;
9789;SDS011;4934;50.852;8.098;2022-12-18T00:58:37;20.70;;;7.73;;
9789;SDS011;4934;50.852;8.098;2022-12-18T01:01:06;24.73;;;8.33;;
9789;SDS011;4934;50.852;8.098;2022-12-18T01:03:32;22.87;;;8.30;;
9789;SDS011;4934;50.852;8.098;2022-12-18T01:05:58;21.47;;;6.47;;
9789;SDS011;4934;50.852;8.098;2022-12-18T01:08:23;19.77;;;7.30;;
9789;SDS011;4934;50.852;8.098;2022-12-18T01:10:50;24.50;;;7.63;;
9789;SDS011;4934;50.852;8.098;2022-12-18T01:13:16;24.10;;;7.60;;
9789;SDS011;4934;50.852;8.098;2022-12-18T01:15:47;36.30;;;11.73;;
9789;SDS011;4934;50.852;8.098;2022-12-18T01:18:14;45.17;;;15.13;;
9789;SDS011;4934;50.852;8.098;2022-12-18T01:20:40;35.90;;;12.53;;
9789;SDS011;4934;50.852;8.098;2022-12-18T01:23:05;36.33;;;11.10;;
9789;SDS011;4934;50.852;8.098;2022-12-18T01:25:31;21.90;;;8.90;;
9789;SDS011;4934;50.852;8.098;2022-12-18T01:27:56;24.50;;;8.27;;
9789;SDS011;4934;50.852;8.098;2022-12-18T01:30:22;29.87;;;7.47;;
9789;SDS011;4934;50.852;8.098;2022-12-18T01:32:48;24.30;;;6.83;;
9789;SDS011;4934;50.852;8.098;2022-12-18T01:35:13;32.80;;;10.60;;
9789;SDS011;4934;50.852;8.098;2022-12-18T01:37:39;28.20;;;10.43;;
9789;SDS011;4934;50.852;8.098;2022-12-18T01:40:05;25.67;;;8.50;;
9789;SDS011;4934;50.852;8.098;2022-12-18T01:42:31;22.20;;;7.23;;
9789;SDS011;4934;50.852;8.098;2022-12-18T01:47:38;31.33;;;8.87;;
9789;SDS011;4934;50.852;8.098;2022-12-18T01:53:03;29.47;;;9.67;;
9789;SDS011;4934;50.852;8.098;2022-12-18T01:55:31;25.17;;;9.43;;
9789;SDS011;4934;50.852;8.098;2022-12-18T01:58:03;18.23;;;8.30;;
9789;SDS011;4934;50.852;8.098;2022-12-18T02:00:29;19.97;;;7.70;;
9789;SDS011;4934;50.852;8.098;2022-12-18T02:02:55;23.47;;;8.93;;
9789;SDS011;4934;50.852;8.098;2022-12-18T02:08:13;27.00;;;9.03;;
9789;SDS011;4934;50.852;8.098;2022-12-18T02:18:58;28.07;;;9.10;;
9789;SDS011;4934;50.852;8.098;2022-12-18T02:21:34;26.77;;;8.80;;
9789;SDS011;4934;50.852;8.098;2022-12-18T02:26:58;32.95;;;8.50;;
9789;SDS011;4934;50.852;8.098;2022-12-18T02:30:01;22.90;;;8.03;;
9789;SDS011;4934;50.852;8.098;2022-12-18T02:32:25;22.67;;;7.63;;
9789;SDS011;4934;50.852;8.098;2022-12-18T02:34:54;28.07;;;8.03;;
9789;SDS011;4934;50.852;8.098;2022-12-18T02:37:22;31.65;;;10.50;;
9789;SDS011;4934;50.852;8.098;2022-12-18T02:42:17;25.07;;;8.33;;
9789;SDS011;4934;50.852;8.098;2022-12-18T02:44:47;31.40;;;10.13;;
9789;SDS011;4934;50.852;8.098;2022-12-18T02:47:16;32.43;;;10.37;;
9789;SDS011;4934;50.852;8.098;2022-12-18T02:52:38;35.10;;;12.00;;
9789;SDS011;4934;50.852;8.098;2022-12-18T02:55:28;27.07;;;9.17;;
9789;SDS011;4934;50.852;8.098;2022-12-18T02:58:30;31.30;;;10.17;;
9789;SDS011;4934;50.852;8.098;2022-12-18T03:04:01;25.50;;;9.37;;
9789;SDS011;4934;50.852;8.098;2022-12-18T03:06:33;28.57;;;9.87;;
9789;SDS011;4934;50.852;8.098;2022-12-18T03:09:06;23.40;;;8.80;;
9789;SDS011;4934;50.852;8.098;2022-12-18T03:11:40;28.20;;;9.00;;
9789;SDS011;4934;50.852;8.098;2022-12-18T03:14:29;26.33;;;9.77;;
9789;SDS011;4934;50.852;8.098;2022-12-18T03:16:58;30.17;;;9.52;;
9789;SDS011;4934;50.852;8.098;2022-12-18T03:19:27;33.27;;;9.57;;
9789;SDS011;4934;50.852;8.098;2022-12-18T03:21:56;35.10;;;10.80;;
9789;SDS011;4934;50.852;8.098;2022-12-18T03:24:25;29.40;;;10.13;;
9789;SDS011;4934;50.852;8.098;2022-12-18T03:26:54;33.63;;;12.18;;
9789;SDS011;4934;50.852;8.098;2022-12-18T03:32:11;34.63;;;11.53;;
9789;SDS011;4934;50.852;8.098;2022-12-18T03:34:40;41.17;;;10.33;;
9789;SDS011;4934;50.852;8.098;2022-12-18T03:37:10;28.20;;;9.97;;
9789;SDS011;4934;50.852;8.098;2022-12-18T03:39:36;28.10;;;10.27;;
9789;SDS011;4934;50.852;8.098;2022-12-18T03:42:10;31.43;;;11.10;;
9789;SDS011;4934;50.852;8.098;2022-12-18T03:44:45;30.23;;;10.43;;
9789;SDS011;4934;50.852;8.098;2022-12-18T03:47:26;28.30;;;9.57;;
9789;SDS011;4934;50.852;8.098;2022-12-18T03:50:13;32.40;;;10.73;;
9789;SDS011;4934;50.852;8.098;2022-12-18T03:52:48;28.63;;;10.60;;
9789;SDS011;4934;50.852;8.098;2022-12-18T03:55:19;32.20;;;11.57;;
9789;SDS011;4934;50.852;8.098;2022-12-18T03:57:47;32.30;;;10.00;;
9789;SDS011;4934;50.852;8.098;2022-12-18T04:00:15;37.03;;;10.47;;
9789;SDS011;4934;50.852;8.098;2022-12-18T04:02:43;29.80;;;9.52;;
9789;SDS011;4934;50.852;8.098;2022-12-18T04:05:13;32.80;;;10.27;;
9789;SDS011;4934;50.852;8.098;2022-12-18T04:07:40;32.60;;;10.15;;
9789;SDS011;4934;50.852;8.098;2022-12-18T04:10:07;33.13;;;12.03;;
9789;SDS011;4934;50.852;8.098;2022-12-18T04:12:37;36.33;;;12.05;;
9789;SDS011;4934;50.852;8.098;2022-12-18T04:15:02;38.57;;;10.77;;
9789;SDS011;4934;50.852;8.098;2022-12-18T04:17:29;26.70;;;10.00;;
9789;SDS011;4934;50.852;8.098;2022-12-18T04:19:54;38.67;;;11.67;;
9789;SDS011;4934;50.852;8.098;2022-12-18T04:22:20;28.07;;;10.83;;
9789;SDS011;4934;50.852;8.098;2022-12-18T04:24:45;34.13;;;11.87;;
9789;SDS011;4934;50.852;8.098;2022-12-18T04:27:11;28.87;;;9.80;;
9789;SDS011;4934;50.852;8.098;2022-12-18T04:29:37;37.53;;;11.43;;
9789;SDS011;4934;50.852;8.098;2022-12-18T04:32:03;34.97;;;10.47;;
9789;SDS011;4934;50.852;8.098;2022-12-18T04:34:28;33.70;;;10.97;;
9789;SDS011;4934;50.852;8.098;2022-12-18T04:36:54;33.57;;;10.60;;
9789;SDS011;4934;50.852;8.098;2022-12-18T04:39:20;28.80;;;9.60;;
9789;SDS011;4934;50.852;8.098;2022-12-18T04:41:45;30.10;;;11.20;;
9789;SDS011;4934;50.852;8.098;2022-12-18T04:44:11;32.60;;;10.83;;
9789;SDS011;4934;50.852;8.098;2022-12-18T04:46:36;45.20;;;11.70;;
9789;SDS011;4934;50.852;8.098;2022-12-18T04:49:02;37.27;;;11.50;;
9789;SDS011;4934;50.852;8.098;2022-12-18T04:51:27;34.03;;;12.03;;
9789;SDS011;4934;50.852;8.098;2022-12-18T04:53:53;31.27;;;11.60;;
9789;SDS011;4934;50.852;8.098;2022-12-18T04:56:19;40.57;;;10.70;;
9789;SDS011;4934;50.852;8.098;2022-12-18T04:58:45;39.27;;;13.07;;
9789;SDS011;4934;50.852;8.098;2022-12-18T05:01:11;35.37;;;11.00;;
9789;SDS011;4934;50.852;8.098;2022-12-18T05:03:38;40.33;;;11.10;;
9789;SDS011;4934;50.852;8.098;2022-12-18T05:06:04;33.33;;;11.20;;
9789;SDS011;4934;50.852;8.098;2022-12-18T05:08:31;33.80;;;10.60;;
9789;SDS011;4934;50.852;8.098;2022-12-18T05:11:07;30.93;;;11.47;;
9789;SDS011;4934;50.852;8.098;2022-12-18T05:13:34;35.33;;;12.17;;
9789;SDS011;4934;50.852;8.098;2022-12-18T05:16:00;41.87;;;12.57;;
9789;SDS011;4934;50.852;8.098;2022-12-18T05:18:26;42.30;;;12.40;;
9789;SDS011;4934;50.852;8.098;2022-12-18T05:20:52;29.63;;;11.10;;
9789;SDS011;4934;50.852;8.098;2022-12-18T05:23:19;39.47;;;12.07;;
9789;SDS011;4934;50.852;8.098;2022-12-18T05:25:50;38.90;;;12.83;;
9789;SDS011;4934;50.852;8.098;2022-12-18T05:28:24;35.50;;;10.93;;
9789;SDS011;4934;50.852;8.098;2022-12-18T05:30:52;35.80;;;11.83;;
9789;SDS011;4934;50.852;8.098;2022-12-18T05:33:19;33.17;;;12.40;;
9789;SDS011;4934;50.852;8.098;2022-12-18T05:35:50;37.80;;;11.87;;
9789;SDS011;4934;50.852;8.098;2022-12-18T05:38:17;34.07;;;11.77;;
9789;SDS011;4934;50.852;8.098;2022-12-18T05:40:43;33.40;;;11.43;;
9789;SDS011;4934;50.852;8.098;2022-12-18T05:43:09;33.53;;;11.37;;
9789;SDS011;4934;50.852;8.098;2022-12-18T05:45:39;38.70;;;11.87;;
9789;SDS011;4934;50.852;8.098;2022-12-18T05:48:05;42.10;;;12.70;;
9789;SDS011;4934;50.852;8.098;2022-12-18T05:50:35;37.90;;;11.10;;
9789;SDS011;4934;50.852;8.098;2022-12-18T05:53:05;37.00;;;12.17;;
9789;SDS011;4934;50.852;8.098;2022-12-18T05:55:34;49.10;;;11.93;;
9789;SDS011;4934;50.852;8.098;2022-12-18T05:58:04;42.43;;;12.97;;
9789;SDS011;4934;50.852;8.098;2022-12-18T06:00:31;38.10;;;12.93;;
9789;SDS011;4934;50.852;8.098;2022-12-18T06:03:00;45.10;;;12.67;;
9789;SDS011;4934;50.852;8.098;2022-12-18T06:05:26;39.73;;;13.57;;
9789;SDS011;4934;50.852;8.098;2022-12-18T06:07:52;30.73;;;11.47;;
9789;SDS011;4934;50.852;8.098;2022-12-18T06:10:18;41.53;;;13.67;;
9789;SDS011;4934;50.852;8.098;2022-12-18T06:12:44;44.70;;;14.33;;
9789;SDS011;4934;50.852;8.098;2022-12-18T06:15:10;40.00;;;12.87;;
9789;SDS011;4934;50.852;8.098;2022-12-18T06:17:36;37.33;;;12.87;;
9789;SDS011;4934;50.852;8.098;2022-12-18T06:20:02;31.93;;;11.80;;
9789;SDS011;4934;50.852;8.098;2022-12-18T06:22:32;44.07;;;13.90;;
9789;SDS011;4934;50.852;8.098;2022-12-18T06:24:58;39.73;;;12.50;;
9789;SDS011;4934;50.852;8.098;2022-12-18T06:27:26;43.50;;;13.20;;
9789;SDS011;4934;50.852;8.098;2022-12-18T06:29:52;43.88;;;13.32;;
9789;SDS011;4934;50.852;8.098;2022-12-18T06:32:17;45.67;;;13.60;;
9789;SDS011;4934;50.852;8.098;2022-12-18T06:34:43;37.63;;;11.43;;
9789;SDS011;4934;50.852;8.098;2022-12-18T06:37:10;32.43;;;11.73;;
9789;SDS011;4934;50.852;8.098;2022-12-18T06:39:36;32.03;;;11.00;;
9789;SDS011;4934;50.852;8.098;2022-12-18T06:42:01;35.17;;;11.83;;
9789;SDS011;4934;50.852;8.098;2022-12-18T06:44:28;40.40;;;12.10;;
9789;SDS011;4934;50.852;8.098;2022-12-18T06:46:53;40.10;;;14.03;;
9789;SDS011;4934;50.852;8.098;2022-12-18T06:49:19;41.53;;;12.70;;
9789;SDS011;4934;50.852;8.098;2022-12-18T06:51:45;35.30;;;12.17;;
9789;SDS011;4934;50.852;8.098;2022-12-18T06:54:11;33.80;;;11.10;;
9789;SDS011;4934;50.852;8.098;2022-12-18T06:56:36;37.90;;;11.70;;
9789;SDS011;4934;50.852;8.098;2022-12-18T06:59:02;30.53;;;11.33;;
9789;SDS011;4934;50.852;8.098;2022-12-18T07:01:31;25.27;;;11.03;;
9789;SDS011;4934;50.852;8.098;2022-12-18T07:03:57;38.70;;;12.53;;
9789;SDS011;4934;50.852;8.098;2022-12-18T07:06:24;31.90;;;11.57;;
9789;SDS011;4934;50.852;8.098;2022-12-18T07:08:53;35.20;;;11.30;;
9789;SDS011;4934;50.852;8.098;2022-12-18T07:11:19;30.53;;;10.67;;
9789;SDS011;4934;50.852;8.098;2022-12-18T07:13:45;40.50;;;11.63;;
9789;SDS011;4934;50.852;8.098;2022-12-18T07:16:12;36.90;;;11.07;;
9789;SDS011;4934;50.852;8.098;2022-12-18T07:18:42;34.33;;;12.00;;
9789;SDS011;4934;50.852;8.098;2022-12-18T07:21:10;39.43;;;14.93;;
9789;SDS011;4934;50.852;8.098;2022-12-18T07:23:37;31.63;;;11.80;;
9789;SDS011;4934;50.852;8.098;2022-12-18T07:26:04;25.37;;;11.77;;
9789;SDS011;4934;50.852;8.098;2022-12-18T07:28:31;32.33;;;11.90;;
9789;SDS011;4934;50.852;8.098;2022-12-18T07:30:58;35.30;;;12.30;;
9789;SDS011;4934;50.852;8.098;2022-12-18T07:33:27;40.60;;;11.30;;
9789;SDS011;4934;50.852;8.098;2022-12-18T07:35:52;27.20;;;9.90;;
9789;SDS011;4934;50.852;8.098;2022-12-18T07:38:19;33.60;;;12.63;;
9789;SDS011;4934;50.852;8.098;2022-12-18T07:40:45;36.73;;;14.00;;
9789;SDS011;4934;50.852;8.098;2022-12-18T07:43:10;34.47;;;11.63;;
9789;SDS011;4934;50.852;8.098;2022-12-18T07:45:36;33.60;;;10.77;;
9789;SDS011;4934;50.852;8.098;2022-12-18T07:48:01;30.40;;;10.43;;
9789;SDS011;4934;50.852;8.098;2022-12-18T07:50:27;30.80;;;12.50;;
9789;SDS011;4934;50.852;8.098;2022-12-18T07:52:52;31.63;;;11.57;;
9789;SDS011;4934;50.852;8.098;2022-12-18T07:55:18;37.53;;;11.60;;
9789;SDS011;4934;50.852;8.098;2022-12-18T07:57:44;32.80;;;11.67;;
9789;SDS011;4934;50.852;8.098;2022-12-18T08:00:10;31.93;;;9.73;;
9789;SDS011;4934;50.852;8.098;2022-12-18T08:02:37;33.57;;;11.90;;
9789;SDS011;4934;50.852;8.098;2022-12-18T08:05:02;35.27;;;11.87;;
9789;SDS011;4934;50.852;8.098;2022-12-18T08:07:28;34.20;;;12.00;;
9789;SDS011;4934;50.852;8.098;2022-12-18T08:09:54;37.23;;;11.80;;
9789;SDS011;4934;50.852;8.098;2022-12-18T08:12:19;28.53;;;9.37;;
9789;SDS011;4934;50.852;8.098;2022-12-18T08:14:45;32.97;;;11.03;;
9789;SDS011;4934;50.852;8.098;2022-12-18T08:17:10;32.77;;;11.23;;
9789;SDS011;4934;50.852;8.098;2022-12-18T08:19:36;27.00;;;10.67;;
9789;SDS011;4934;50.852;8.098;2022-12-18T08:22:02;32.33;;;10.90;;
9789;SDS011;4934;50.852;8.098;2022-12-18T08:24:27;24.97;;;9.43;;
9789;SDS011;4934;50.852;8.098;2022-12-18T08:26:53;39.10;;;11.37;;
9789;SDS011;4934;50.852;8.098;2022-12-18T08:29:18;29.50;;;9.80;;
9789;SDS011;4934;50.852;8.098;2022-12-18T08:31:44;26.87;;;9.17;;
9789;SDS011;4934;50.852;8.098;2022-12-18T08:34:10;28.43;;;9.83;;
9789;SDS011;4934;50.852;8.098;2022-12-18T08:36:36;28.90;;;9.47;;
9789;SDS011;4934;50.852;8.098;2022-12-18T08:39:01;31.07;;;10.40;;
9789;SDS011;4934;50.852;8.098;2022-12-18T08:41:27;31.07;;;10.27;;
9789;SDS011;4934;50.852;8.098;2022-12-18T08:43:52;30.63;;;10.27;;
9789;SDS011;4934;50.852;8.098;2022-12-18T08:46:37;29.17;;;10.43;;
9789;SDS011;4934;50.852;8.098;2022-12-18T08:49:05;27.15;;;9.68;;
9789;SDS011;4934;50.852;8.098;2022-12-18T08:51:32;28.30;;;10.90;;
9789;SDS011;4934;50.852;8.098;2022-12-18T08:53:58;30.43;;;9.77;;
9789;SDS011;4934;50.852;8.098;2022-12-18T08:56:24;30.60;;;10.50;;
9789;SDS011;4934;50.852;8.098;2022-12-18T08:58:53;27.13;;;9.87;;
9789;SDS011;4934;50.852;8.098;2022-12-18T09:01:20;28.13;;;9.80;;
9789;SDS011;4934;50.852;8.098;2022-12-18T09:03:46;34.30;;;12.17;;
9789;SDS011;4934;50.852;8.098;2022-12-18T09:06:18;32.43;;;10.33;;
9789;SDS011;4934;50.852;8.098;2022-12-18T09:08:45;35.93;;;12.00;;
9789;SDS011;4934;50.852;8.098;2022-12-18T09:11:44;53.13;;;16.90;;
9789;SDS011;4934;50.852;8.098;2022-12-18T09:14:03;25.90;;;10.83;;
9789;SDS011;4934;50.852;8.098;2022-12-18T09:16:29;42.70;;;13.17;;
9789;SDS011;4934;50.852;8.098;2022-12-18T09:18:55;30.30;;;10.70;;
9789;SDS011;4934;50.852;8.098;2022-12-18T09:21:24;23.33;;;9.30;;
9789;SDS011;4934;50.852;8.098;2022-12-18T09:23:52;31.77;;;9.93;;
9789;SDS011;4934;50.852;8.098;2022-12-18T09:26:19;35.83;;;11.90;;
9789;SDS011;4934;50.852;8.098;2022-12-18T09:28:49;41.60;;;12.73;;
9789;SDS011;4934;50.852;8.098;2022-12-18T09:31:16;34.23;;;11.70;;
9789;SDS011;4934;50.852;8.098;2022-12-18T09:33:42;31.93;;;10.97;;
9789;SDS011;4934;50.852;8.098;2022-12-18T09:36:10;25.73;;;9.50;;
9789;SDS011;4934;50.852;8.098;2022-12-18T09:38:38;32.75;;;10.10;;
9789;SDS011;4934;50.852;8.098;2022-12-18T09:46:52;25.77;;;8.67;;
9789;SDS011;4934;50.852;8.098;2022-12-18T09:49:22;25.33;;;10.10;;
9789;SDS011;4934;50.852;8.098;2022-12-18T09:51:56;33.30;;;11.53;;
9789;SDS011;4934;50.852;8.098;2022-12-18T09:54:36;28.77;;;10.67;;
9789;SDS011;4934;50.852;8.098;2022-12-18T09:57:06;22.53;;;9.43;;
9789;SDS011;4934;50.852;8.098;2022-12-18T09:59:44;25.27;;;9.90;;
9789;SDS011;4934;50.852;8.098;2022-12-18T10:02:19;23.47;;;9.13;;
9789;SDS011;4934;50.852;8.098;2022-12-18T10:04:49;26.17;;;8.90;;
9789;SDS011;4934;50.852;8.098;2022-12-18T10:07:21;27.70;;;9.80;;
9789;SDS011;4934;50.852;8.098;2022-12-18T10:10:07;26.63;;;10.07;;
9789;SDS011;4934;50.852;8.098;2022-12-18T10:12:51;25.97;;;9.43;;
9789;SDS011;4934;50.852;8.098;2022-12-18T10:15:43;26.13;;;8.30;;
9789;SDS011;4934;50.852;8.098;2022-12-18T10:18:26;23.67;;;8.93;;
9789;SDS011;4934;50.852;8.098;2022-12-18T10:21:13;32.17;;;10.70;;
9789;SDS011;4934;50.852;8.098;2022-12-18T10:26:55;21.40;;;7.77;;
9789;SDS011;4934;50.852;8.098;2022-12-18T10:29:34;25.30;;;9.13;;
9789;SDS011;4934;50.852;8.098;2022-12-18T10:32:00;20.53;;;8.43;;
9789;SDS011;4934;50.852;8.098;2022-12-18T10:34:25;29.20;;;10.00;;
9789;SDS011;4934;50.852;8.098;2022-12-18T10:36:52;27.53;;;9.40;;
9789;SDS011;4934;50.852;8.098;2022-12-18T10:39:22;30.63;;;10.70;;
9789;SDS011;4934;50.852;8.098;2022-12-18T10:41:50;25.50;;;10.40;;
9789;SDS011;4934;50.852;8.098;2022-12-18T10:44:21;25.53;;;9.10;;
9789;SDS011;4934;50.852;8.098;2022-12-18T10:46:48;22.93;;;9.37;;
9789;SDS011;4934;50.852;8.098;2022-12-18T10:49:34;24.48;;;9.10;;
9789;SDS011;4934;50.852;8.098;2022-12-18T10:52:10;27.13;;;9.23;;
9789;SDS011;4934;50.852;8.098;2022-12-18T10:54:45;21.00;;;8.53;;
9789;SDS011;4934;50.852;8.098;2022-12-18T10:59:52;26.50;;;9.10;;
9789;SDS011;4934;50.852;8.098;2022-12-18T11:02:35;29.45;;;10.07;;
9789;SDS011;4934;50.852;8.098;2022-12-18T11:05:04;31.27;;;10.90;;
9789;SDS011;4934;50.852;8.098;2022-12-18T11:07:55;22.10;;;8.67;;
9789;SDS011;4934;50.852;8.098;2022-12-18T11:10:23;24.50;;;8.73;;
9789;SDS011;4934;50.852;8.098;2022-12-18T11:16:03;29.77;;;10.60;;
9789;SDS011;4934;50.852;8.098;2022-12-18T11:18:32;26.70;;;9.67;;
9789;SDS011;4934;50.852;8.098;2022-12-18T11:21:04;24.70;;;10.40;;
9789;SDS011;4934;50.852;8.098;2022-12-18T11:23:32;25.93;;;9.57;;
9789;SDS011;4934;50.852;8.098;2022-12-18T11:26:03;18.77;;;8.70;;
9789;SDS011;4934;50.852;8.098;2022-12-18T11:28:38;23.20;;;9.50;;
9789;SDS011;4934;50.852;8.098;2022-12-18T11:31:23;25.77;;;10.13;;
9789;SDS011;4934;50.852;8.098;2022-12-18T11:36:44;32.07;;;10.83;;
9789;SDS011;4934;50.852;8.098;2022-12-18T11:39:13;30.75;;;11.32;;
9789;SDS011;4934;50.852;8.098;2022-12-18T11:41:53;29.67;;;10.73;;
9789;SDS011;4934;50.852;8.098;2022-12-18T11:44:42;27.83;;;9.63;;
9789;SDS011;4934;50.852;8.098;2022-12-18T11:49:56;28.77;;;10.13;;
9789;SDS011;4934;50.852;8.098;2022-12-18T11:52:39;32.30;;;11.23;;
9789;SDS011;4934;50.852;8.098;2022-12-18T11:55:14;30.93;;;10.33;;
9789;SDS011;4934;50.852;8.098;2022-12-18T11:57:49;27.80;;;11.07;;
9789;SDS011;4934;50.852;8.098;2022-12-18T12:00:21;27.90;;;10.27;;
9789;SDS011;4934;50.852;8.098;2022-12-18T12:05:44;25.73;;;10.83;;
9789;SDS011;4934;50.852;8.098;2022-12-18T12:16:25;36.63;;;12.03;;
9789;SDS011;4934;50.852;8.098;2022-12-18T12:19:05;33.33;;;11.87;;
9789;SDS011;4934;50.852;8.098;2022-12-18T12:24:12;29.17;;;11.83;;
9789;SDS011;4934;50.852;8.098;2022-12-18T12:27:06;31.00;;;11.47;;
9789;SDS011;4934;50.852;8.098;2022-12-18T12:30:07;30.30;;;11.20;;
9789;SDS011;4934;50.852;8.098;2022-12-18T12:35:52;31.03;;;12.70;;
9789;SDS011;4934;50.852;8.098;2022-12-18T12:38:57;31.87;;;11.20;;
9789;SDS011;4934;50.852;8.098;2022-12-18T12:41:25;33.67;;;10.83;;
9789;SDS011;4934;50.852;8.098;2022-12-18T12:44:19;35.43;;;12.93;;
9789;SDS011;4934;50.852;8.098;2022-12-18T12:46:56;36.30;;;12.13;;
9789;SDS011;4934;50.852;8.098;2022-12-18T12:49:29;33.63;;;12.40;;
9789;SDS011;4934;50.852;8.098;2022-12-18T12:51:59;39.50;;;13.07;;
9789;SDS011;4934;50.852;8.098;2022-12-18T12:54:31;32.83;;;13.13;;
9789;SDS011;4934;50.852;8.098;2022-12-18T12:57:04;36.10;;;12.93;;
9789;SDS011;4934;50.852;8.098;2022-12-18T13:02:56;35.53;;;13.23;;
9789;SDS011;4934;50.852;8.098;2022-12-18T13:05:34;33.77;;;13.13;;
9789;SDS011;4934;50.852;8.098;2022-12-18T13:08:07;43.73;;;14.83;;
9789;SDS011;4934;50.852;8.098;2022-12-18T13:10:46;37.30;;;13.80;;
9789;SDS011;4934;50.852;8.098;2022-12-18T13:13:15;38.30;;;14.80;;
9789;SDS011;4934;50.852;8.098;2022-12-18T13:15:48;43.53;;;15.20;;
9789;SDS011;4934;50.852;8.098;2022-12-18T13:18:28;53.23;;;18.83;;
9789;SDS011;4934;50.852;8.098;2022-12-18T13:25:58;38.10;;;13.98;;
9789;SDS011;4934;50.852;8.098;2022-12-18T13:31:13;43.67;;;14.07;;
9789;SDS011;4934;50.852;8.098;2022-12-18T13:36:48;44.87;;;14.00;;
9789;SDS011;4934;50.852;8.098;2022-12-18T13:41:40;49.13;;;16.67;;
9789;SDS011;4934;50.852;8.098;2022-12-18T13:44:11;43.40;;;15.90;;
9789;SDS011;4934;50.852;8.098;2022-12-18T13:46:55;45.80;;;15.30;;
9789;SDS011;4934;50.852;8.098;2022-12-18T13:49:25;45.43;;;15.37;;
9789;SDS011;4934;50.852;8.098;2022-12-18T13:52:02;48.10;;;15.20;;
9789;SDS011;4934;50.852;8.098;2022-12-18T13:56:57;42.10;;;15.43;;
9789;SDS011;4934;50.852;8.098;2022-12-18T14:02:01;47.60;;;16.47;;
9789;SDS011;4934;50.852;8.098;2022-12-18T14:04:36;42.73;;;15.93;;
9789;SDS011;4934;50.852;8.098;2022-12-18T14:07:06;51.83;;;17.13;;
9789;SDS011;4934;50.852;8.098;2022-12-18T14:09:59;46.27;;;16.27;;
9789;SDS011;4934;50.852;8.098;2022-12-18T14:12:32;43.03;;;15.48;;
9789;SDS011;4934;50.852;8.098;2022-12-18T14:20:20;51.35;;;16.27;;
9789;SDS011;4934;50.852;8.098;2022-12-18T14:22:47;50.80;;;17.20;;
9789;SDS011;4934;50.852;8.098;2022-12-18T14:25:23;57.33;;;17.43;;
9789;SDS011;4934;50.852;8.098;2022-12-18T14:27:52;54.50;;;18.10;;
9789;SDS011;4934;50.852;8.098;2022-12-18T14:30:28;46.43;;;16.63;;
9789;SDS011;4934;50.852;8.098;2022-12-18T14:33:00;60.67;;;17.33;;
9789;SDS011;4934;50.852;8.098;2022-12-18T14:35:37;58.30;;;18.07;;
9789;SDS011;4934;50.852;8.098;2022-12-18T14:38:24;45.75;;;15.95;;
9789;SDS011;4934;50.852;8.098;2022-12-18T14:40:54;53.50;;;17.57;;
9789;SDS011;4934;50.852;8.098;2022-12-18T14:43:23;50.77;;;17.93;;
9789;SDS011;4934;50.852;8.098;2022-12-18T14:45:49;52.00;;;18.73;;
9789;SDS011;4934;50.852;8.098;2022-12-18T14:48:17;52.77;;;17.63;;
9789;SDS011;4934;50.852;8.098;2022-12-18T14:50:55;55.83;;;18.33;;
9789;SDS011;4934;50.852;8.098;2022-12-18T14:53:35;60.43;;;18.17;;
9789;SDS011;4934;50.852;8.098;2022-12-18T14:59:02;62.33;;;21.00;;
9789;SDS011;4934;50.852;8.098;2022-12-18T15:01:30;62.40;;;20.87;;
9789;SDS011;4934;50.852;8.098;2022-12-18T15:09:41;59.27;;;19.50;;
9789;SDS011;4934;50.852;8.098;2022-12-18T15:12:44;57.50;;;19.37;;
9789;SDS011;4934;50.852;8.098;2022-12-18T15:18:00;55.97;;;19.10;;
9789;SDS011;4934;50.852;8.098;2022-12-18T15:23:31;57.30;;;18.73;;
9789;SDS011;4934;50.852;8.098;2022-12-18T15:34:38;67.40;;;19.80;;
9789;SDS011;4934;50.852;8.098;2022-12-18T15:36:32;68.70;;;20.10;;
9789;SDS011;4934;50.852;8.098;2022-12-18T15:39:01;60.60;;;19.47;;
9789;SDS011;4934;50.852;8.098;2022-12-18T15:41:28;71.80;;;21.20;;
9789;SDS011;4934;50.852;8.098;2022-12-18T15:43:58;71.27;;;22.20;;
9789;SDS011;4934;50.852;8.098;2022-12-18T15:46:24;55.00;;;19.17;;
9789;SDS011;4934;50.852;8.098;2022-12-18T15:48:52;65.77;;;19.53;;
9789;SDS011;4934;50.852;8.098;2022-12-18T15:51:35;75.65;;;22.35;;
9789;SDS011;4934;50.852;8.098;2022-12-18T15:54:02;63.13;;;18.13;;
9789;SDS011;4934;50.852;8.098;2022-12-18T15:56:29;78.43;;;22.35;;
9789;SDS011;4934;50.852;8.098;2022-12-18T15:59:15;62.73;;;19.07;;
9789;SDS011;4934;50.852;8.098;2022-12-18T16:01:43;69.07;;;18.88;;
9789;SDS011;4934;50.852;8.098;2022-12-18T16:04:25;64.97;;;20.47;;
9789;SDS011;4934;50.852;8.098;2022-12-18T16:06:51;72.30;;;21.13;;
9789;SDS011;4934;50.852;8.098;2022-12-18T16:09:16;65.40;;;19.93;;
9789;SDS011;4934;50.852;8.098;2022-12-18T16:11:42;67.80;;;20.47;;
9789;SDS011;4934;50.852;8.098;2022-12-18T16:17:01;66.83;;;20.20;;
9789;SDS011;4934;50.852;8.098;2022-12-18T16:19:30;63.47;;;19.83;;
9789;SDS011;4934;50.852;8.098;2022-12-18T16:21:56;80.47;;;21.20;;
9789;SDS011;4934;50.852;8.098;2022-12-18T16:24:24;88.27;;;23.00;;
9789;SDS011;4934;50.852;8.098;2022-12-18T16:29:18;71.40;;;17.23;;
9789;SDS011;4934;50.852;8.098;2022-12-18T16:31:49;69.97;;;19.30;;
9789;SDS011;4934;50.852;8.098;2022-12-18T16:34:25;71.70;;;17.73;;
9789;SDS011;4934;50.852;8.098;2022-12-18T16:39:26;78.23;;;22.57;;
9789;SDS011;4934;50.852;8.098;2022-12-18T16:41:52;75.40;;;20.07;;
9789;SDS011;4934;50.852;8.098;2022-12-18T16:44:17;68.93;;;20.33;;
9789;SDS011;4934;50.852;8.098;2022-12-18T16:46:43;75.37;;;20.50;;
9789;SDS011;4934;50.852;8.098;2022-12-18T16:49:11;76.83;;;20.03;;
9789;SDS011;4934;50.852;8.098;2022-12-18T16:54:35;69.68;;;20.75;;
9789;SDS011;4934;50.852;8.098;2022-12-18T16:57:01;67.60;;;21.37;;
9789;SDS011;4934;50.852;8.098;2022-12-18T16:59:31;72.57;;;25.15;;
9789;SDS011;4934;50.852;8.098;2022-12-18T17:02:00;69.87;;;20.23;;
9789;SDS011;4934;50.852;8.098;2022-12-18T17:04:25;67.60;;;20.83;;
9789;SDS011;4934;50.852;8.098;2022-12-18T17:09:27;69.00;;;20.80;;
9789;SDS011;4934;50.852;8.098;2022-12-18T17:11:53;67.97;;;21.53;;
9789;SDS011;4934;50.852;8.098;2022-12-18T17:14:19;69.23;;;20.63;;
9789;SDS011;4934;50.852;8.098;2022-12-18T17:16:52;73.60;;;21.17;;
9789;SDS011;4934;50.852;8.098;2022-12-18T17:19:18;74.53;;;21.63;;